Crazy Horse, South Dakota
Current Conditions -  °F | °C
As of 6:53 AM on Saturday 20 Dec 2014 (Local Time) from KCUT Reporting Station
Overcast Overcast  
Wind Chill: 31°   Ceiling: 9500
Heat Index: 35°   Visibility: 10mi
Dew Point: 19°   Wind: 5mph
Humidity: 52%   Direction: 360°N
Pressure: 29.91"   Gusts: NA
Location:  43.6653°N, 103.766°W
Report Text: KCUT 201353Z AUTO 36004KT 10SM SCT060 OVC095 02/M07 A2991 RMK AO2 SLP149 T00171072
Loading
Personal Weather Stations






























Interactive Weather Map New forecast layout! Learn more

10-Day Weather Forecast

Advertisements
Track Severe Weather on mobile